KRAP/RAP METAR and TAF weather

Enter ICAO airport designator
Station Type Date Time Source
KRAP METAR 2020/01/24 20:52 UTC NOAA

KRAP 242052Z 15009KT 10SM OVC085 04/M06 A2991 RMK AO2 SLP157 T00441061 56023


Station Type Date Time Source
KRAP Decoded METAR 2020/01/24 20:52 UTC NOAA

RAPID CITY REGIONAL AIRPORT , SD, United States (KRAP) 44-03N 103-03W 965M
Jan 24, 2020 - 03:52 PM EST / 2020.01.24 2052 UTC
Wind: from the SSE (150 degrees) at 10 MPH (9 KT):0
Visibility: 10 mile(s):0
Sky conditions: overcast
Temperature: 39.9 F (4.4 C)
Dew Point: 21.0 F (-6.1 C)
Relative Humidity: 46%
Pressure (altimeter): 29.91 in. Hg (1012 hPa)
Pressure tendency: 0.07 inches (2.3 hPa) lower than three hours ago
ob: KRAP 242052Z 15009KT 10SM OVC085 04/M06 A2991 RMK AO2 SLP157 T00441061 56023
cycle: 21

Station Type Date Time Source
KRAP TAF 2020/01/24 18:22 UTC NOAA

TAF KRAP 241720Z 2418/2518 14006KT P6SM SCT070 BKN200

Example: see airport list